PST,Max TemperatureF,Mean TemperatureF,Min TemperatureF,Max Dew PointF,MeanDew PointF,Min DewpointF,Max Humidity, Mean Humidity, Min Humidity, Max Sea Level PressureIn, Mean Sea Level PressureIn, Min Sea Level PressureIn, Max VisibilityMiles, Mean VisibilityMiles, Min VisibilityMiles, Max Wind SpeedMPH, Mean Wind SpeedMPH, Max Gust SpeedMPH,PrecipitationIn, CloudCover, Events, WindDirDegrees
2014-2-1,59,48,37,43,38,34,93,63,39,30.18,30.13,30.10,15,11,10,12,6,,0.00,0,,348
2014-2-2,53,48,44,46,44,41,100,83,71,29.94,29.89,29.86,20,14,7,18,12,29,0.00,6,Rain,121
2014-2-3,55,48,41,46,41,37,93,73,51,30.09,30.05,30.02,20,18,10,15,8,,0.00,2,,297
2014-2-4,57,49,41,43,40,37,93,71,55,30.17,30.12,30.09,10,10,10,12,7,,0.00,6,,333
2014-2-5,55,48,42,43,41,37,81,68,62,30.21,30.16,30.12,,,,12,7,,0.00,5,Rain,343
2014-2-6,55,52,48,50,48,46,100,90,77,30.01,29.93,29.89,10,8,5,17,13,25,0.00,7,Rain,124
2014-2-7,55,52,50,32,32,32,50,50,50,30.10,30.06,30.01,20,12,8,12,8,,0.00,7,Rain,160
2014-2-8,64,60,55,57,55,52,94,81,73,30.15,30.12,30.08,20,11,8,15,12,23,0.00,8,,185
2014-2-9,64,62,59,55,55,54,88,79,68,30.17,30.13,30.09,10,9,4,15,6,,0.00,8,Rain,185
2014-2-10,60,56,51,55,52,45,100,86,63,30.29,30.25,30.12,15,9,2,12,7,,0.00,6,,338
2014-2-11,60,55,50,,,,,,,30.26,30.22,30.17,20,11,5,12,5,,0.00,6,,348
2014-2-12,60,55,50,52,51,50,100,91,82,30.29,30.23,30.18,20,7,4,12,6,,0.00,7,,330
2014-2-13,68,60,51,57,57,57,88,88,88,30.23,30.16,30.11,20,6,0,10,5,,0.00,4,Fog,340
2014-2-14,62,58,51,,,,,,,30.17,30.12,30.07,20,11,1,8,3,,0.00,7,Fog,353
2014-2-15,62,54,46,,,,,,,30.05,30.02,29.99,20,16,10,17,4,21,0.00,7,,272
2014-2-16,64,56,48,48,41,36,93,56,34,30.21,30.16,30.11,20,20,20,14,6,,0.00,2,,323
2014-2-17,62,52,42,48,45,41,93,68,52,30.19,30.16,30.12,20,18,10,16,7,,0.00,2,,328
2014-2-18,68,55,42,50,47,41,93,72,46,30.20,30.15,30.10,20,12,10,13,6,,0.00,6,,326
2014-2-19,66,60,51,54,47,43,94,63,45,30.18,30.15,30.11,20,12,10,16,10,,0.00,1,,327
2014-2-20,69,58,46,45,42,36,87,54,33,30.21,30.16,30.12,,,,12,7,,0.00,5,,326
2014-2-21,71,55,39,50,47,37,93,63,40,30.12,30.05,29.98,20,13,10,12,5,,0.00,0,,355
2014-2-22,68,59,50,54,50,41,94,73,46,30.02,29.97,29.92,15,12,10,14,7,,0.00,3,,360
2014-2-23,68,59,50,52,50,46,94,77,49,30.04,29.99,29.95,15,10,5,12,6,,0.00,2,,333
2014-2-24,75,58,41,52,48,41,100,64,33,30.01,29.95,29.90,20,17,15,12,6,,0.00,0,,344
2014-2-25,66,58,51,52,50,46,88,77,60,29.99,29.95,29.91,20,9,6,15,8,,0.00,5,,16
2014-2-26,62,58,55,57,54,50,94,87,72,29.94,29.81,29.66,10,8,3,21,15,32,0.00,8,Rain,142
2014-2-27,66,60,55,55,50,48,82,64,52,29.90,29.81,29.62,20,13,7,15,10,,0.00,7,,165
2014-2-28,60,58,53,55,53,48,100,83,63,29.46,29.41,29.38,10,9,4,21,11,23,0.00,8,Rain,156